sensor_id;sensor_type;location;lat;lon;timestamp;temperature;humidity
4635;DHT22;2330;48.158;11.816;2022-12-18T00:01:24;-6.60;98.50
4635;DHT22;2330;48.158;11.816;2022-12-18T00:03:52;-6.60;98.50
4635;DHT22;2330;48.158;11.816;2022-12-18T00:06:21;-6.50;98.50
4635;DHT22;2330;48.158;11.816;2022-12-18T00:08:48;-6.40;98.50
4635;DHT22;2330;48.158;11.816;2022-12-18T00:11:18;-6.40;98.50
4635;DHT22;2330;48.158;11.816;2022-12-18T00:13:46;-6.50;98.50
4635;DHT22;2330;48.158;11.816;2022-12-18T00:16:15;-6.50;98.50
4635;DHT22;2330;48.158;11.816;2022-12-18T00:18:42;-6.50;98.50
4635;DHT22;2330;48.158;11.816;2022-12-18T00:21:11;-6.50;98.50
4635;DHT22;2330;48.158;11.816;2022-12-18T00:23:40;-6.50;98.50
4635;DHT22;2330;48.158;11.816;2022-12-18T00:26:12;-6.40;98.50
4635;DHT22;2330;48.158;11.816;2022-12-18T00:28:39;-6.50;98.50
4635;DHT22;2330;48.158;11.816;2022-12-18T00:31:08;-6.40;98.50
4635;DHT22;2330;48.158;11.816;2022-12-18T00:33:38;-6.40;98.50
4635;DHT22;2330;48.158;11.816;2022-12-18T00:36:08;-6.30;98.50
4635;DHT22;2330;48.158;11.816;2022-12-18T00:38:36;-6.30;98.50
4635;DHT22;2330;48.158;11.816;2022-12-18T00:41:04;-6.30;98.50
4635;DHT22;2330;48.158;11.816;2022-12-18T00:43:31;-6.30;98.50
4635;DHT22;2330;48.158;11.816;2022-12-18T00:45:58;-6.30;98.50
4635;DHT22;2330;48.158;11.816;2022-12-18T00:48:25;-6.20;98.50
4635;DHT22;2330;48.158;11.816;2022-12-18T00:50:52;-6.20;98.50
4635;DHT22;2330;48.158;11.816;2022-12-18T00:53:19;-6.30;98.50
4635;DHT22;2330;48.158;11.816;2022-12-18T00:55:46;-6.30;98.50
4635;DHT22;2330;48.158;11.816;2022-12-18T00:58:15;-6.20;98.50
4635;DHT22;2330;48.158;11.816;2022-12-18T01:00:43;-6.20;98.50
4635;DHT22;2330;48.158;11.816;2022-12-18T01:03:13;-6.10;98.50
4635;DHT22;2330;48.158;11.816;2022-12-18T01:05:41;-6.10;98.50
4635;DHT22;2330;48.158;11.816;2022-12-18T01:08:08;-6.10;98.50
4635;DHT22;2330;48.158;11.816;2022-12-18T01:10:35;-6.10;98.50
4635;DHT22;2330;48.158;11.816;2022-12-18T01:13:01;-6.10;98.50
4635;DHT22;2330;48.158;11.816;2022-12-18T01:15:28;-6.10;98.50
4635;DHT22;2330;48.158;11.816;2022-12-18T01:17:55;-6.10;98.50
4635;DHT22;2330;48.158;11.816;2022-12-18T01:20:22;-6.00;98.50
4635;DHT22;2330;48.158;11.816;2022-12-18T01:22:49;-6.00;98.50
4635;DHT22;2330;48.158;11.816;2022-12-18T01:25:16;-6.00;98.50
4635;DHT22;2330;48.158;11.816;2022-12-18T01:27:43;-6.00;98.50
4635;DHT22;2330;48.158;11.816;2022-12-18T01:30:10;-6.00;98.50
4635;DHT22;2330;48.158;11.816;2022-12-18T01:32:37;-6.00;98.50
4635;DHT22;2330;48.158;11.816;2022-12-18T01:35:04;-6.00;98.50
4635;DHT22;2330;48.158;11.816;2022-12-18T01:37:32;-6.00;98.50
4635;DHT22;2330;48.158;11.816;2022-12-18T01:39:58;-6.00;98.50
4635;DHT22;2330;48.158;11.816;2022-12-18T01:42:25;-5.90;98.50
4635;DHT22;2330;48.158;11.816;2022-12-18T01:47:50;-6.00;98.50
4635;DHT22;2330;48.158;11.816;2022-12-18T01:50:23;-6.00;98.50
4635;DHT22;2330;48.158;11.816;2022-12-18T01:52:58;-6.00;98.50
4635;DHT22;2330;48.158;11.816;2022-12-18T01:55:29;-6.00;98.50
4635;DHT22;2330;48.158;11.816;2022-12-18T01:57:58;-6.00;98.50
4635;DHT22;2330;48.158;11.816;2022-12-18T02:00:27;-6.00;98.50
4635;DHT22;2330;48.158;11.816;2022-12-18T02:02:54;-5.90;98.50
4635;DHT22;2330;48.158;11.816;2022-12-18T02:05:44;-5.90;98.50
4635;DHT22;2330;48.158;11.816;2022-12-18T02:08:21;-5.90;98.50
4635;DHT22;2330;48.158;11.816;2022-12-18T02:13:50;-5.90;98.50
4635;DHT22;2330;48.158;11.816;2022-12-18T02:16:23;-5.80;98.50
4635;DHT22;2330;48.158;11.816;2022-12-18T02:18:58;-5.80;98.50
4635;DHT22;2330;48.158;11.816;2022-12-18T02:24:45;-5.80;98.50
4635;DHT22;2330;48.158;11.816;2022-12-18T02:27:18;-5.80;98.50
4635;DHT22;2330;48.158;11.816;2022-12-18T02:29:51;-5.80;98.50
4635;DHT22;2330;48.158;11.816;2022-12-18T02:32:30;-5.80;98.50
4635;DHT22;2330;48.158;11.816;2022-12-18T02:34:59;-5.90;98.50
4635;DHT22;2330;48.158;11.816;2022-12-18T02:37:29;-5.90;98.50
4635;DHT22;2330;48.158;11.816;2022-12-18T02:39:58;-5.80;98.50
4635;DHT22;2330;48.158;11.816;2022-12-18T02:42:26;-5.80;98.50
4635;DHT22;2330;48.158;11.816;2022-12-18T02:44:54;-5.80;98.50
4635;DHT22;2330;48.158;11.816;2022-12-18T02:47:23;-5.80;98.50
4635;DHT22;2330;48.158;11.816;2022-12-18T02:50:13;-5.80;98.50
4635;DHT22;2330;48.158;11.816;2022-12-18T02:58:29;-5.70;98.50
4635;DHT22;2330;48.158;11.816;2022-12-18T03:01:11;-5.70;98.50
4635;DHT22;2330;48.158;11.816;2022-12-18T03:03:50;-5.70;98.50
4635;DHT22;2330;48.158;11.816;2022-12-18T03:08:48;-5.70;98.50
4635;DHT22;2330;48.158;11.816;2022-12-18T03:11:16;-5.70;98.50
4635;DHT22;2330;48.158;11.816;2022-12-18T03:14:04;-5.70;98.50
4635;DHT22;2330;48.158;11.816;2022-12-18T03:16:34;-5.80;98.50
4635;DHT22;2330;48.158;11.816;2022-12-18T03:19:06;-5.70;98.50
4635;DHT22;2330;48.158;11.816;2022-12-18T03:21:40;-5.80;98.50
4635;DHT22;2330;48.158;11.816;2022-12-18T03:24:09;-5.70;98.50
4635;DHT22;2330;48.158;11.816;2022-12-18T03:26:40;-5.80;98.50
4635;DHT22;2330;48.158;11.816;2022-12-18T03:29:12;-5.80;98.50
4635;DHT22;2330;48.158;11.816;2022-12-18T03:31:43;-5.80;98.50
4635;DHT22;2330;48.158;11.816;2022-12-18T03:34:20;-5.90;98.50
4635;DHT22;2330;48.158;11.816;2022-12-18T03:36:48;-5.90;98.50
4635;DHT22;2330;48.158;11.816;2022-12-18T03:39:15;-5.90;98.50
4635;DHT22;2330;48.158;11.816;2022-12-18T03:44:44;-5.90;98.50
4635;DHT22;2330;48.158;11.816;2022-12-18T03:47:20;-6.00;98.50
4635;DHT22;2330;48.158;11.816;2022-12-18T03:50:10;-5.90;98.50
4635;DHT22;2330;48.158;11.816;2022-12-18T03:52:46;-6.00;98.50
4635;DHT22;2330;48.158;11.816;2022-12-18T03:55:16;-5.90;98.50
4635;DHT22;2330;48.158;11.816;2022-12-18T03:57:44;-6.00;98.50
4635;DHT22;2330;48.158;11.816;2022-12-18T04:00:14;-5.90;98.50
4635;DHT22;2330;48.158;11.816;2022-12-18T04:02:51;-5.90;98.50
4635;DHT22;2330;48.158;11.816;2022-12-18T04:05:20;-5.80;98.50
4635;DHT22;2330;48.158;11.816;2022-12-18T04:07:49;-5.80;98.50
4635;DHT22;2330;48.158;11.816;2022-12-18T04:10:18;-5.70;98.50
4635;DHT22;2330;48.158;11.816;2022-12-18T04:12:44;-5.80;98.50
4635;DHT22;2330;48.158;11.816;2022-12-18T04:15:12;-5.80;98.50
4635;DHT22;2330;48.158;11.816;2022-12-18T04:17:46;-5.80;98.50
4635;DHT22;2330;48.158;11.816;2022-12-18T04:20:13;-5.70;98.50
4635;DHT22;2330;48.158;11.816;2022-12-18T04:22:41;-5.70;98.50
4635;DHT22;2330;48.158;11.816;2022-12-18T04:25:08;-5.70;98.50
4635;DHT22;2330;48.158;11.816;2022-12-18T04:27:35;-5.70;98.50
4635;DHT22;2330;48.158;11.816;2022-12-18T04:30:02;-5.70;98.50
4635;DHT22;2330;48.158;11.816;2022-12-18T04:32:29;-5.80;98.50
4635;DHT22;2330;48.158;11.816;2022-12-18T04:34:55;-5.90;98.50
4635;DHT22;2330;48.158;11.816;2022-12-18T04:37:22;-5.80;98.50
4635;DHT22;2330;48.158;11.816;2022-12-18T04:39:49;-5.80;98.50
4635;DHT22;2330;48.158;11.816;2022-12-18T04:42:16;-5.70;98.50
4635;DHT22;2330;48.158;11.816;2022-12-18T04:44:42;-5.80;98.50
4635;DHT22;2330;48.158;11.816;2022-12-18T04:47:09;-5.70;98.50
4635;DHT22;2330;48.158;11.816;2022-12-18T04:49:36;-5.70;98.50
4635;DHT22;2330;48.158;11.816;2022-12-18T04:52:03;-5.60;98.50
4635;DHT22;2330;48.158;11.816;2022-12-18T04:54:29;-5.70;98.50
4635;DHT22;2330;48.158;11.816;2022-12-18T04:56:56;-5.60;98.50
4635;DHT22;2330;48.158;11.816;2022-12-18T04:59:23;-5.70;98.50
4635;DHT22;2330;48.158;11.816;2022-12-18T05:01:50;-5.70;98.50
4635;DHT22;2330;48.158;11.816;2022-12-18T05:04:17;-5.70;98.50
4635;DHT22;2330;48.158;11.816;2022-12-18T05:06:45;-5.60;98.50
4635;DHT22;2330;48.158;11.816;2022-12-18T05:09:12;-5.60;98.50
4635;DHT22;2330;48.158;11.816;2022-12-18T05:11:39;-5.50;98.50
4635;DHT22;2330;48.158;11.816;2022-12-18T05:14:06;-5.50;98.50
4635;DHT22;2330;48.158;11.816;2022-12-18T05:16:33;-5.50;98.50
4635;DHT22;2330;48.158;11.816;2022-12-18T05:19:00;-5.50;98.50
4635;DHT22;2330;48.158;11.816;2022-12-18T05:21:27;-5.50;98.50
4635;DHT22;2330;48.158;11.816;2022-12-18T05:23:53;-5.50;98.50
4635;DHT22;2330;48.158;11.816;2022-12-18T05:26:20;-5.60;98.50
4635;DHT22;2330;48.158;11.816;2022-12-18T05:28:47;-5.60;98.50
4635;DHT22;2330;48.158;11.816;2022-12-18T05:31:14;-5.60;98.50
4635;DHT22;2330;48.158;11.816;2022-12-18T05:33:41;-5.60;98.50
4635;DHT22;2330;48.158;11.816;2022-12-18T05:36:10;-5.60;98.50
4635;DHT22;2330;48.158;11.816;2022-12-18T05:38:38;-5.60;98.50
4635;DHT22;2330;48.158;11.816;2022-12-18T05:41:06;-5.50;98.50
4635;DHT22;2330;48.158;11.816;2022-12-18T05:43:35;-5.50;98.50
4635;DHT22;2330;48.158;11.816;2022-12-18T05:46:08;-5.60;98.50
4635;DHT22;2330;48.158;11.816;2022-12-18T05:48:35;-5.60;98.50
4635;DHT22;2330;48.158;11.816;2022-12-18T05:51:08;-5.60;98.50
4635;DHT22;2330;48.158;11.816;2022-12-18T05:53:36;-5.70;98.50
4635;DHT22;2330;48.158;11.816;2022-12-18T05:56:08;-5.70;98.50
4635;DHT22;2330;48.158;11.816;2022-12-18T05:58:35;-5.90;98.50
4635;DHT22;2330;48.158;11.816;2022-12-18T06:01:11;-5.90;98.50
4635;DHT22;2330;48.158;11.816;2022-12-18T06:03:39;-6.00;98.50
4635;DHT22;2330;48.158;11.816;2022-12-18T06:06:14;-6.00;98.50
4635;DHT22;2330;48.158;11.816;2022-12-18T06:08:41;-5.90;98.50
4635;DHT22;2330;48.158;11.816;2022-12-18T06:11:12;-5.90;98.50
4635;DHT22;2330;48.158;11.816;2022-12-18T06:13:39;-5.90;98.50
4635;DHT22;2330;48.158;11.816;2022-12-18T06:16:07;-5.90;98.50
4635;DHT22;2330;48.158;11.816;2022-12-18T06:18:34;-5.90;98.50
4635;DHT22;2330;48.158;11.816;2022-12-18T06:21:01;-5.90;98.50
4635;DHT22;2330;48.158;11.816;2022-12-18T06:23:28;-5.90;98.50
4635;DHT22;2330;48.158;11.816;2022-12-18T06:25:55;-5.90;98.50
4635;DHT22;2330;48.158;11.816;2022-12-18T06:28:22;-5.90;98.50
4635;DHT22;2330;48.158;11.816;2022-12-18T06:30:49;-5.90;98.50
4635;DHT22;2330;48.158;11.816;2022-12-18T06:33:16;-5.80;98.50
4635;DHT22;2330;48.158;11.816;2022-12-18T06:35:43;-5.80;98.50
4635;DHT22;2330;48.158;11.816;2022-12-18T06:38:09;-5.80;98.50
4635;DHT22;2330;48.158;11.816;2022-12-18T06:40:37;-5.80;98.50
4635;DHT22;2330;48.158;11.816;2022-12-18T06:43:05;-5.70;98.50
4635;DHT22;2330;48.158;11.816;2022-12-18T06:45:32;-5.70;98.50
4635;DHT22;2330;48.158;11.816;2022-12-18T06:48:00;-5.70;98.50
4635;DHT22;2330;48.158;11.816;2022-12-18T06:50:26;-5.80;98.50
4635;DHT22;2330;48.158;11.816;2022-12-18T06:52:53;-5.80;98.50
4635;DHT22;2330;48.158;11.816;2022-12-18T06:55:20;-5.90;98.50
4635;DHT22;2330;48.158;11.816;2022-12-18T06:57:47;-5.90;98.50
4635;DHT22;2330;48.158;11.816;2022-12-18T07:00:14;-5.90;98.50
4635;DHT22;2330;48.158;11.816;2022-12-18T07:02:40;-6.00;98.50
4635;DHT22;2330;48.158;11.816;2022-12-18T07:05:07;-5.90;98.50
4635;DHT22;2330;48.158;11.816;2022-12-18T07:07:36;-6.00;98.50
4635;DHT22;2330;48.158;11.816;2022-12-18T07:10:04;-5.90;98.50
4635;DHT22;2330;48.158;11.816;2022-12-18T07:12:31;-5.80;98.50
4635;DHT22;2330;48.158;11.816;2022-12-18T07:14:57;-5.80;98.50
4635;DHT22;2330;48.158;11.816;2022-12-18T07:17:24;-6.00;98.50
4635;DHT22;2330;48.158;11.816;2022-12-18T07:19:51;-6.10;98.50
4635;DHT22;2330;48.158;11.816;2022-12-18T07:22:18;-6.10;98.50
4635;DHT22;2330;48.158;11.816;2022-12-18T07:24:44;-6.10;98.50
4635;DHT22;2330;48.158;11.816;2022-12-18T07:27:11;-6.10;98.50
4635;DHT22;2330;48.158;11.816;2022-12-18T07:29:38;-6.00;98.50
4635;DHT22;2330;48.158;11.816;2022-12-18T07:32:05;-6.00;98.50
4635;DHT22;2330;48.158;11.816;2022-12-18T07:34:34;-6.00;98.50
4635;DHT22;2330;48.158;11.816;2022-12-18T07:37:01;-5.90;98.50
4635;DHT22;2330;48.158;11.816;2022-12-18T07:39:27;-5.80;98.50
4635;DHT22;2330;48.158;11.816;2022-12-18T07:41:54;-5.70;98.50
4635;DHT22;2330;48.158;11.816;2022-12-18T07:44:40;-5.70;98.50
4635;DHT22;2330;48.158;11.816;2022-12-18T07:47:07;-5.80;98.50
4635;DHT22;2330;48.158;11.816;2022-12-18T07:49:37;-5.90;98.50
4635;DHT22;2330;48.158;11.816;2022-12-18T07:52:04;-6.10;98.50
4635;DHT22;2330;48.158;11.816;2022-12-18T07:54:31;-6.00;98.50
4635;DHT22;2330;48.158;11.816;2022-12-18T07:56:58;-5.90;98.50
4635;DHT22;2330;48.158;11.816;2022-12-18T07:59:24;-5.70;98.50
4635;DHT22;2330;48.158;11.816;2022-12-18T08:01:51;-5.70;98.50
4635;DHT22;2330;48.158;11.816;2022-12-18T08:04:18;-5.60;98.50
4635;DHT22;2330;48.158;11.816;2022-12-18T08:06:45;-5.70;98.50
4635;DHT22;2330;48.158;11.816;2022-12-18T08:09:14;-5.70;98.50
4635;DHT22;2330;48.158;11.816;2022-12-18T08:11:40;-5.80;98.50
4635;DHT22;2330;48.158;11.816;2022-12-18T08:14:07;-5.80;98.50
4635;DHT22;2330;48.158;11.816;2022-12-18T08:16:34;-5.90;98.50
4635;DHT22;2330;48.158;11.816;2022-12-18T08:19:01;-5.80;98.50
4635;DHT22;2330;48.158;11.816;2022-12-18T08:21:30;-5.80;98.50
4635;DHT22;2330;48.158;11.816;2022-12-18T08:24:00;-5.90;98.50
4635;DHT22;2330;48.158;11.816;2022-12-18T08:26:29;-5.80;98.50
4635;DHT22;2330;48.158;11.816;2022-12-18T08:28:58;-5.80;98.50
4635;DHT22;2330;48.158;11.816;2022-12-18T08:31:25;-5.90;98.50
4635;DHT22;2330;48.158;11.816;2022-12-18T08:33:53;-5.80;98.50
4635;DHT22;2330;48.158;11.816;2022-12-18T08:36:21;-5.80;98.50
4635;DHT22;2330;48.158;11.816;2022-12-18T08:38:50;-5.80;98.50
4635;DHT22;2330;48.158;11.816;2022-12-18T08:41:17;-5.80;98.50
4635;DHT22;2330;48.158;11.816;2022-12-18T08:43:44;-5.60;98.50
4635;DHT22;2330;48.158;11.816;2022-12-18T08:46:35;-5.50;98.50
4635;DHT22;2330;48.158;11.816;2022-12-18T08:49:04;-5.60;98.50
4635;DHT22;2330;48.158;11.816;2022-12-18T08:51:31;-5.40;98.50
4635;DHT22;2330;48.158;11.816;2022-12-18T08:53:58;-5.10;98.50
4635;DHT22;2330;48.158;11.816;2022-12-18T08:56:25;-5.40;98.50
4635;DHT22;2330;48.158;11.816;2022-12-18T08:58:53;-5.50;98.50
4635;DHT22;2330;48.158;11.816;2022-12-18T09:01:20;-5.70;98.50
4635;DHT22;2330;48.158;11.816;2022-12-18T09:03:52;-5.80;98.50
4635;DHT22;2330;48.158;11.816;2022-12-18T09:06:20;-5.80;98.50
4635;DHT22;2330;48.158;11.816;2022-12-18T09:08:48;-5.70;98.50
4635;DHT22;2330;48.158;11.816;2022-12-18T09:11:22;-5.70;98.50
4635;DHT22;2330;48.158;11.816;2022-12-18T09:13:50;-5.70;98.50
4635;DHT22;2330;48.158;11.816;2022-12-18T09:16:18;-5.60;98.50
4635;DHT22;2330;48.158;11.816;2022-12-18T09:18:45;-5.20;98.50
4635;DHT22;2330;48.158;11.816;2022-12-18T09:21:18;-5.20;98.50
4635;DHT22;2330;48.158;11.816;2022-12-18T09:23:52;-5.10;98.50
4635;DHT22;2330;48.158;11.816;2022-12-18T09:26:23;-5.40;98.50
4635;DHT22;2330;48.158;11.816;2022-12-18T09:28:50;-5.40;98.50
4635;DHT22;2330;48.158;11.816;2022-12-18T09:31:20;-5.60;98.50
4635;DHT22;2330;48.158;11.816;2022-12-18T09:33:47;-5.50;98.50
4635;DHT22;2330;48.158;11.816;2022-12-18T09:36:15;-5.70;98.50
4635;DHT22;2330;48.158;11.816;2022-12-18T09:38:43;-5.70;98.50
4635;DHT22;2330;48.158;11.816;2022-12-18T09:42:04;-5.70;98.50
4635;DHT22;2330;48.158;11.816;2022-12-18T09:47:30;-5.60;98.50
4635;DHT22;2330;48.158;11.816;2022-12-18T09:50:27;-5.60;98.50
4635;DHT22;2330;48.158;11.816;2022-12-18T09:52:58;-5.60;98.50
4635;DHT22;2330;48.158;11.816;2022-12-18T09:55:36;-5.30;98.50
4635;DHT22;2330;48.158;11.816;2022-12-18T09:58:19;-5.30;98.50
4635;DHT22;2330;48.158;11.816;2022-12-18T10:00:47;-5.20;98.50
4635;DHT22;2330;48.158;11.816;2022-12-18T10:03:15;-5.10;98.50
4635;DHT22;2330;48.158;11.816;2022-12-18T10:08:49;-4.90;98.50
4635;DHT22;2330;48.158;11.816;2022-12-18T10:11:37;-5.00;98.50
4635;DHT22;2330;48.158;11.816;2022-12-18T10:20:10;-4.80;98.50
4635;DHT22;2330;48.158;11.816;2022-12-18T10:23:08;-5.00;98.50
4635;DHT22;2330;48.158;11.816;2022-12-18T10:28:25;-4.90;98.50
4635;DHT22;2330;48.158;11.816;2022-12-18T10:30:52;-5.10;98.50
4635;DHT22;2330;48.158;11.816;2022-12-18T10:33:21;-5.00;98.50
4635;DHT22;2330;48.158;11.816;2022-12-18T10:35:51;-4.80;98.50
4635;DHT22;2330;48.158;11.816;2022-12-18T10:41:04;-4.90;98.50
4635;DHT22;2330;48.158;11.816;2022-12-18T10:46:08;-5.30;98.50
4635;DHT22;2330;48.158;11.816;2022-12-18T10:51:29;-4.80;98.50
4635;DHT22;2330;48.158;11.816;2022-12-18T10:54:03;-5.00;98.50
4635;DHT22;2330;48.158;11.816;2022-12-18T10:56:35;-4.80;98.50
4635;DHT22;2330;48.158;11.816;2022-12-18T10:59:07;-4.70;98.50
4635;DHT22;2330;48.158;11.816;2022-12-18T11:01:55;-4.80;98.50
4635;DHT22;2330;48.158;11.816;2022-12-18T11:04:31;-4.70;98.50
4635;DHT22;2330;48.158;11.816;2022-12-18T11:09:28;-4.90;98.50
4635;DHT22;2330;48.158;11.816;2022-12-18T11:11:58;-4.70;98.50
4635;DHT22;2330;48.158;11.816;2022-12-18T11:14:32;-4.50;98.50
4635;DHT22;2330;48.158;11.816;2022-12-18T11:17:00;-4.40;98.50
4635;DHT22;2330;48.158;11.816;2022-12-18T11:19:55;-4.40;98.50
4635;DHT22;2330;48.158;11.816;2022-12-18T11:22:32;-4.20;98.50
4635;DHT22;2330;48.158;11.816;2022-12-18T11:25:02;-4.60;98.50
4635;DHT22;2330;48.158;11.816;2022-12-18T11:27:55;-4.50;98.50
4635;DHT22;2330;48.158;11.816;2022-12-18T11:30:32;-4.50;98.50
4635;DHT22;2330;48.158;11.816;2022-12-18T11:33:11;-4.60;98.50
4635;DHT22;2330;48.158;11.816;2022-12-18T11:36:06;-4.60;98.50
4635;DHT22;2330;48.158;11.816;2022-12-18T11:38:36;-4.50;98.50
4635;DHT22;2330;48.158;11.816;2022-12-18T11:44:21;-4.40;98.50
4635;DHT22;2330;48.158;11.816;2022-12-18T11:46:53;-4.30;98.50
4635;DHT22;2330;48.158;11.816;2022-12-18T11:49:41;-4.40;98.50
4635;DHT22;2330;48.158;11.816;2022-12-18T11:55:04;-4.40;98.50
4635;DHT22;2330;48.158;11.816;2022-12-18T12:00:11;-4.70;98.50
4635;DHT22;2330;48.158;11.816;2022-12-18T12:11:50;-4.60;98.50
4635;DHT22;2330;48.158;11.816;2022-12-18T12:14:49;-4.40;98.50
4635;DHT22;2330;48.158;11.816;2022-12-18T12:20:22;-4.10;98.50
4635;DHT22;2330;48.158;11.816;2022-12-18T12:23:15;-4.10;98.50
4635;DHT22;2330;48.158;11.816;2022-12-18T12:26:07;-3.90;98.50
4635;DHT22;2330;48.158;11.816;2022-12-18T12:40:31;-4.20;98.50
4635;DHT22;2330;48.158;11.816;2022-12-18T12:46:07;-4.10;98.50
4635;DHT22;2330;48.158;11.816;2022-12-18T12:48:56;-4.00;98.50
4635;DHT22;2330;48.158;11.816;2022-12-18T12:51:36;-3.90;98.50
4635;DHT22;2330;48.158;11.816;2022-12-18T12:54:15;-4.00;98.50
4635;DHT22;2330;48.158;11.816;2022-12-18T12:56:59;-3.80;98.50
4635;DHT22;2330;48.158;11.816;2022-12-18T12:59:57;-4.20;98.50
4635;DHT22;2330;48.158;11.816;2022-12-18T13:08:24;-4.10;98.50
4635;DHT22;2330;48.158;11.816;2022-12-18T13:10:54;-4.00;98.50
4635;DHT22;2330;48.158;11.816;2022-12-18T13:13:53;-4.20;98.50
4635;DHT22;2330;48.158;11.816;2022-12-18T13:16:25;-4.40;98.50
4635;DHT22;2330;48.158;11.816;2022-12-18T13:18:56;-4.60;98.50
4635;DHT22;2330;48.158;11.816;2022-12-18T13:21:30;-4.70;98.50
4635;DHT22;2330;48.158;11.816;2022-12-18T13:24:15;-4.70;98.50
4635;DHT22;2330;48.158;11.816;2022-12-18T13:26:48;-4.80;98.50
4635;DHT22;2330;48.158;11.816;2022-12-18T13:29:40;-4.70;98.50
4635;DHT22;2330;48.158;11.816;2022-12-18T13:32:23;-4.60;98.50
4635;DHT22;2330;48.158;11.816;2022-12-18T13:37:51;-4.50;98.50
4635;DHT22;2330;48.158;11.816;2022-12-18T13:45:50;-4.80;98.50
4635;DHT22;2330;48.158;11.816;2022-12-18T13:48:26;-4.70;98.50
4635;DHT22;2330;48.158;11.816;2022-12-18T13:51:04;-4.70;98.50
4635;DHT22;2330;48.158;11.816;2022-12-18T13:56:21;-4.80;98.50
4635;DHT22;2330;48.158;11.816;2022-12-18T13:59:22;-4.70;98.50
4635;DHT22;2330;48.158;11.816;2022-12-18T14:04:29;-4.80;98.50
4635;DHT22;2330;48.158;11.816;2022-12-18T14:09:39;-4.90;98.50
4635;DHT22;2330;48.158;11.816;2022-12-18T14:12:24;-5.00;98.50
4635;DHT22;2330;48.158;11.816;2022-12-18T14:15:40;-5.10;98.50
4635;DHT22;2330;48.158;11.816;2022-12-18T14:20:51;-5.10;98.50
4635;DHT22;2330;48.158;11.816;2022-12-18T14:26:02;-5.20;98.50
4635;DHT22;2330;48.158;11.816;2022-12-18T14:28:32;-5.20;98.50
4635;DHT22;2330;48.158;11.816;2022-12-18T14:30:59;-5.30;98.50
4635;DHT22;2330;48.158;11.816;2022-12-18T14:33:27;-5.30;98.50
4635;DHT22;2330;48.158;11.816;2022-12-18T14:36:01;-5.30;98.50
4635;DHT22;2330;48.158;11.816;2022-12-18T14:41:19;-5.30;98.50
4635;DHT22;2330;48.158;11.816;2022-12-18T14:43:48;-5.30;98.50
4635;DHT22;2330;48.158;11.816;2022-12-18T14:51:56;-5.40;98.50
4635;DHT22;2330;48.158;11.816;2022-12-18T14:54:25;-5.50;98.50
4635;DHT22;2330;48.158;11.816;2022-12-18T14:59:41;-5.50;98.50
4635;DHT22;2330;48.158;11.816;2022-12-18T15:02:22;-5.40;98.50
4635;DHT22;2330;48.158;11.816;2022-12-18T15:05:27;-5.60;98.50
4635;DHT22;2330;48.158;11.816;2022-12-18T15:07:57;-5.60;98.50
4635;DHT22;2330;48.158;11.816;2022-12-18T15:10:27;-5.60;98.50
4635;DHT22;2330;48.158;11.816;2022-12-18T15:20:51;-5.70;98.50
4635;DHT22;2330;48.158;11.816;2022-12-18T15:23:21;-5.70;98.50
4635;DHT22;2330;48.158;11.816;2022-12-18T15:26:02;-5.60;98.50
4635;DHT22;2330;48.158;11.816;2022-12-18T15:28:37;-5.60;98.50
4635;DHT22;2330;48.158;11.816;2022-12-18T15:33:42;-5.60;98.50
4635;DHT22;2330;48.158;11.816;2022-12-18T15:36:13;-5.60;98.50
4635;DHT22;2330;48.158;11.816;2022-12-18T15:38:40;-5.80;98.50
4635;DHT22;2330;48.158;11.816;2022-12-18T15:41:15;-5.90;98.50
4635;DHT22;2330;48.158;11.816;2022-12-18T15:43:51;-5.90;98.50
4635;DHT22;2330;48.158;11.816;2022-12-18T15:46:20;-5.80;98.50
4635;DHT22;2330;48.158;11.816;2022-12-18T15:48:55;-5.80;98.50
4635;DHT22;2330;48.158;11.816;2022-12-18T15:51:33;-5.90;98.50
4635;DHT22;2330;48.158;11.816;2022-12-18T15:54:02;-6.00;98.50
4635;DHT22;2330;48.158;11.816;2022-12-18T15:56:30;-6.10;98.50
4635;DHT22;2330;48.158;11.816;2022-12-18T15:59:19;-6.10;98.50
4635;DHT22;2330;48.158;11.816;2022-12-18T16:01:49;-6.20;98.50
4635;DHT22;2330;48.158;11.816;2022-12-18T16:04:19;-6.20;98.50
4635;DHT22;2330;48.158;11.816;2022-12-18T16:06:48;-6.10;98.50
4635;DHT22;2330;48.158;11.816;2022-12-18T16:09:35;-6.20;98.50
4635;DHT22;2330;48.158;11.816;2022-12-18T16:12:02;-6.10;98.50
4635;DHT22;2330;48.158;11.816;2022-12-18T16:14:30;-6.10;98.50
4635;DHT22;2330;48.158;11.816;2022-12-18T16:17:02;-6.10;98.50
4635;DHT22;2330;48.158;11.816;2022-12-18T16:19:30;-6.10;98.50
4635;DHT22;2330;48.158;11.816;2022-12-18T16:21:58;-6.10;98.50
4635;DHT22;2330;48.158;11.816;2022-12-18T16:24:30;-6.20;98.50
4635;DHT22;2330;48.158;11.816;2022-12-18T16:26:58;-6.10;98.50
4635;DHT22;2330;48.158;11.816;2022-12-18T16:29:27;-6.20;98.50
4635;DHT22;2330;48.158;11.816;2022-12-18T16:31:55;-6.20;98.50
4635;DHT22;2330;48.158;11.816;2022-12-18T16:34:28;-6.10;98.50
4635;DHT22;2330;48.158;11.816;2022-12-18T16:37:00;-6.10;98.50
4635;DHT22;2330;48.158;11.816;2022-12-18T16:39:32;-6.10;98.50
4635;DHT22;2330;48.158;11.816;2022-12-18T16:42:08;-6.20;98.50
4635;DHT22;2330;48.158;11.816;2022-12-18T16:44:36;-6.20;98.50
4635;DHT22;2330;48.158;11.816;2022-12-18T16:47:03;-6.20;98.50
4635;DHT22;2330;48.158;11.816;2022-12-18T16:49:30;-6.20;98.50
4635;DHT22;2330;48.158;11.816;2022-12-18T16:51:57;-6.10;98.50
4635;DHT22;2330;48.158;11.816;2022-12-18T16:54:24;-6.10;98.50
4635;DHT22;2330;48.158;11.816;2022-12-18T16:56:51;-6.10;98.50
4635;DHT22;2330;48.158;11.816;2022-12-18T16:59:18;-6.10;98.50
4635;DHT22;2330;48.158;11.816;2022-12-18T17:01:45;-6.10;98.50
4635;DHT22;2330;48.158;11.816;2022-12-18T17:04:13;-6.10;98.50
4635;DHT22;2330;48.158;11.816;2022-12-18T17:06:44;-6.10;98.50
4635;DHT22;2330;48.158;11.816;2022-12-18T17:09:18;-6.10;98.50
4635;DHT22;2330;48.158;11.816;2022-12-18T17:11:51;-6.10;98.50
4635;DHT22;2330;48.158;11.816;2022-12-18T17:14:20;-6.10;98.50
4635;DHT22;2330;48.158;11.816;2022-12-18T17:16:47;-6.10;98.50
4635;DHT22;2330;48.158;11.816;2022-12-18T17:19:34;-6.10;98.50
4635;DHT22;2330;48.158;11.816;2022-12-18T17:22:01;-6.10;98.50
4635;DHT22;2330;48.158;11.816;2022-12-18T17:24:28;-6.10;98.50
4635;DHT22;2330;48.158;11.816;2022-12-18T17:27:01;-6.00;98.50
4635;DHT22;2330;48.158;11.816;2022-12-18T17:29:28;-6.20;98.50
4635;DHT22;2330;48.158;11.816;2022-12-18T17:31:55;-6.10;98.50
4635;DHT22;2330;48.158;11.816;2022-12-18T17:34:24;-6.10;98.50
4635;DHT22;2330;48.158;11.816;2022-12-18T17:36:50;-6.10;98.50
4635;DHT22;2330;48.158;11.816;2022-12-18T17:39:19;-6.10;98.50
4635;DHT22;2330;48.158;11.816;2022-12-18T17:41:46;-6.10;98.50
4635;DHT22;2330;48.158;11.816;2022-12-18T17:44:14;-6.10;98.50
4635;DHT22;2330;48.158;11.816;2022-12-18T17:46:42;-6.00;98.50
4635;DHT22;2330;48.158;11.816;2022-12-18T17:49:10;-6.00;98.50
4635;DHT22;2330;48.158;11.816;2022-12-18T17:51:38;-6.00;98.50
4635;DHT22;2330;48.158;11.816;2022-12-18T17:54:05;-6.00;98.50
4635;DHT22;2330;48.158;11.816;2022-12-18T17:56:32;-6.00;98.50
4635;DHT22;2330;48.158;11.816;2022-12-18T17:58:59;-6.00;98.50
4635;DHT22;2330;48.158;11.816;2022-12-18T18:01:26;-6.10;98.50
4635;DHT22;2330;48.158;11.816;2022-12-18T18:03:54;-6.20;98.50
4635;DHT22;2330;48.158;11.816;2022-12-18T18:06:26;-6.20;98.50
4635;DHT22;2330;48.158;11.816;2022-12-18T18:08:53;-6.30;98.50
4635;DHT22;2330;48.158;11.816;2022-12-18T18:11:21;-6.30;98.50
4635;DHT22;2330;48.158;11.816;2022-12-18T18:14:15;-6.30;98.50
4635;DHT22;2330;48.158;11.816;2022-12-18T18:16:44;-6.20;98.50
4635;DHT22;2330;48.158;11.816;2022-12-18T18:19:15;-6.20;98.50
4635;DHT22;2330;48.158;11.816;2022-12-18T18:21:44;-6.20;98.50